sensor_id;sensor_type;location;lat;lon;timestamp;P1;durP1;ratioP1;P2;durP2;ratioP2
75007;SDS011;63554;48.940;12.050;2023-03-01T00:02:17;11.68;;;3.38;;
75007;SDS011;63554;48.940;12.050;2023-03-01T00:06:20;5.00;;;2.97;;
75007;SDS011;63554;48.940;12.050;2023-03-01T00:10:23;4.50;;;3.25;;
75007;SDS011;63554;48.940;12.050;2023-03-01T00:14:29;4.53;;;3.63;;
75007;SDS011;63554;48.940;12.050;2023-03-01T00:18:32;3.10;;;2.33;;
75007;SDS011;63554;48.940;12.050;2023-03-01T00:22:35;2.65;;;2.45;;
75007;SDS011;63554;48.940;12.050;2023-03-01T00:26:37;3.10;;;2.90;;
75007;SDS011;63554;48.940;12.050;2023-03-01T00:30:42;2.28;;;2.08;;
75007;SDS011;63554;48.940;12.050;2023-03-01T00:34:45;4.03;;;2.13;;
75007;SDS011;63554;48.940;12.050;2023-03-01T00:38:55;2.17;;;2.03;;
75007;SDS011;63554;48.940;12.050;2023-03-01T00:42:57;2.67;;;1.40;;
75007;SDS011;63554;48.940;12.050;2023-03-01T00:47:01;4.35;;;2.47;;
75007;SDS011;63554;48.940;12.050;2023-03-01T00:51:05;2.83;;;2.63;;
75007;SDS011;63554;48.940;12.050;2023-03-01T00:55:08;2.75;;;2.60;;
75007;SDS011;63554;48.940;12.050;2023-03-01T00:59:12;1.77;;;1.60;;
75007;SDS011;63554;48.940;12.050;2023-03-01T01:03:16;2.55;;;2.35;;
75007;SDS011;63554;48.940;12.050;2023-03-01T01:07:18;3.55;;;3.25;;
75007;SDS011;63554;48.940;12.050;2023-03-01T01:11:22;2.17;;;2.00;;
75007;SDS011;63554;48.940;12.050;2023-03-01T01:15:26;1.75;;;1.65;;
75007;SDS011;63554;48.940;12.050;2023-03-01T01:19:30;2.10;;;2.00;;
75007;SDS011;63554;48.940;12.050;2023-03-01T01:23:33;2.92;;;2.72;;
75007;SDS011;63554;48.940;12.050;2023-03-01T01:27:36;6.22;;;2.05;;
75007;SDS011;63554;48.940;12.050;2023-03-01T01:31:40;3.58;;;1.85;;
75007;SDS011;63554;48.940;12.050;2023-03-01T01:35:46;3.30;;;2.78;;
75007;SDS011;63554;48.940;12.050;2023-03-01T01:39:48;6.38;;;2.92;;
75007;SDS011;63554;48.940;12.050;2023-03-01T01:48:18;1.60;;;1.27;;
75007;SDS011;63554;48.940;12.050;2023-03-01T01:56:29;2.95;;;2.75;;
75007;SDS011;63554;48.940;12.050;2023-03-01T02:00:32;2.83;;;2.63;;
75007;SDS011;63554;48.940;12.050;2023-03-01T02:04:35;3.25;;;2.95;;
75007;SDS011;63554;48.940;12.050;2023-03-01T02:08:40;3.15;;;2.75;;
75007;SDS011;63554;48.940;12.050;2023-03-01T02:12:44;7.07;;;3.53;;
75007;SDS011;63554;48.940;12.050;2023-03-01T02:16:48;2.50;;;1.80;;
75007;SDS011;63554;48.940;12.050;2023-03-01T02:20:55;2.78;;;2.45;;
75007;SDS011;63554;48.940;12.050;2023-03-01T02:25:12;5.75;;;2.65;;
75007;SDS011;63554;48.940;12.050;2023-03-01T02:29:37;4.50;;;2.75;;
75007;SDS011;63554;48.940;12.050;2023-03-01T02:33:40;3.35;;;3.08;;
75007;SDS011;63554;48.940;12.050;2023-03-01T02:37:45;2.70;;;2.55;;
75007;SDS011;63554;48.940;12.050;2023-03-01T02:41:50;6.20;;;1.95;;
75007;SDS011;63554;48.940;12.050;2023-03-01T02:45:57;3.22;;;2.53;;
75007;SDS011;63554;48.940;12.050;2023-03-01T02:50:00;3.70;;;3.35;;
75007;SDS011;63554;48.940;12.050;2023-03-01T02:54:07;5.85;;;3.58;;
75007;SDS011;63554;48.940;12.050;2023-03-01T02:58:14;3.42;;;3.13;;
75007;SDS011;63554;48.940;12.050;2023-03-01T03:02:22;4.13;;;3.72;;
75007;SDS011;63554;48.940;12.050;2023-03-01T03:06:37;3.75;;;3.08;;
75007;SDS011;63554;48.940;12.050;2023-03-01T03:10:40;3.53;;;3.10;;
75007;SDS011;63554;48.940;12.050;2023-03-01T03:14:44;3.80;;;3.50;;
75007;SDS011;63554;48.940;12.050;2023-03-01T03:18:48;4.35;;;4.03;;
75007;SDS011;63554;48.940;12.050;2023-03-01T03:22:51;2.03;;;1.90;;
75007;SDS011;63554;48.940;12.050;2023-03-01T03:26:55;3.97;;;3.67;;
75007;SDS011;63554;48.940;12.050;2023-03-01T03:30:58;4.28;;;2.97;;
75007;SDS011;63554;48.940;12.050;2023-03-01T03:35:07;3.63;;;3.33;;
75007;SDS011;63554;48.940;12.050;2023-03-01T03:39:11;1.95;;;1.80;;
75007;SDS011;63554;48.940;12.050;2023-03-01T03:43:14;3.05;;;2.80;;
75007;SDS011;63554;48.940;12.050;2023-03-01T03:47:18;2.33;;;2.22;;
75007;SDS011;63554;48.940;12.050;2023-03-01T03:51:22;2.25;;;2.00;;
75007;SDS011;63554;48.940;12.050;2023-03-01T03:55:25;2.08;;;1.88;;
75007;SDS011;63554;48.940;12.050;2023-03-01T03:59:31;4.35;;;3.67;;
75007;SDS011;63554;48.940;12.050;2023-03-01T04:03:34;3.92;;;2.65;;
75007;SDS011;63554;48.940;12.050;2023-03-01T04:07:38;2.05;;;1.92;;
75007;SDS011;63554;48.940;12.050;2023-03-01T04:11:41;2.30;;;2.20;;
75007;SDS011;63554;48.940;12.050;2023-03-01T04:15:44;2.35;;;1.95;;
75007;SDS011;63554;48.940;12.050;2023-03-01T04:19:46;4.38;;;2.83;;
75007;SDS011;63554;48.940;12.050;2023-03-01T04:23:51;3.25;;;3.05;;
75007;SDS011;63554;48.940;12.050;2023-03-01T04:27:54;3.63;;;3.35;;
75007;SDS011;63554;48.940;12.050;2023-03-01T04:31:57;3.75;;;3.45;;
75007;SDS011;63554;48.940;12.050;2023-03-01T04:36:00;2.35;;;2.15;;
75007;SDS011;63554;48.940;12.050;2023-03-01T04:40:08;7.60;;;3.92;;
75007;SDS011;63554;48.940;12.050;2023-03-01T04:44:17;3.33;;;3.08;;
75007;SDS011;63554;48.940;12.050;2023-03-01T04:48:20;8.85;;;2.55;;
75007;SDS011;63554;48.940;12.050;2023-03-01T04:52:23;5.18;;;2.15;;
75007;SDS011;63554;48.940;12.050;2023-03-01T04:56:27;4.25;;;3.15;;
75007;SDS011;63554;48.940;12.050;2023-03-01T05:00:30;7.10;;;2.92;;
75007;SDS011;63554;48.940;12.050;2023-03-01T05:04:33;2.80;;;2.60;;
75007;SDS011;63554;48.940;12.050;2023-03-01T05:08:36;2.85;;;2.75;;
75007;SDS011;63554;48.940;12.050;2023-03-01T05:12:40;3.17;;;2.97;;
75007;SDS011;63554;48.940;12.050;2023-03-01T05:16:43;3.50;;;3.20;;
75007;SDS011;63554;48.940;12.050;2023-03-01T05:20:45;1.50;;;1.42;;
75007;SDS011;63554;48.940;12.050;2023-03-01T05:24:48;4.18;;;3.47;;
75007;SDS011;63554;48.940;12.050;2023-03-01T05:28:52;9.50;;;2.65;;
75007;SDS011;63554;48.940;12.050;2023-03-01T05:32:57;2.28;;;2.08;;
75007;SDS011;63554;48.940;12.050;2023-03-01T05:37:00;4.47;;;3.92;;
75007;SDS011;63554;48.940;12.050;2023-03-01T05:41:04;4.45;;;4.15;;
75007;SDS011;63554;48.940;12.050;2023-03-01T05:45:08;4.88;;;2.58;;
75007;SDS011;63554;48.940;12.050;2023-03-01T05:49:11;3.00;;;2.60;;
75007;SDS011;63554;48.940;12.050;2023-03-01T05:53:15;4.45;;;2.65;;
75007;SDS011;63554;48.940;12.050;2023-03-01T05:57:20;2.83;;;2.65;;
75007;SDS011;63554;48.940;12.050;2023-03-01T06:01:23;2.15;;;2.03;;
75007;SDS011;63554;48.940;12.050;2023-03-01T06:05:26;2.88;;;2.72;;
75007;SDS011;63554;48.940;12.050;2023-03-01T06:09:30;3.03;;;2.83;;
75007;SDS011;63554;48.940;12.050;2023-03-01T06:13:32;4.18;;;3.88;;
75007;SDS011;63554;48.940;12.050;2023-03-01T06:17:37;3.30;;;3.10;;
75007;SDS011;63554;48.940;12.050;2023-03-01T06:21:41;3.60;;;2.50;;
75007;SDS011;63554;48.940;12.050;2023-03-01T06:25:44;3.92;;;3.17;;
75007;SDS011;63554;48.940;12.050;2023-03-01T06:29:46;2.65;;;2.45;;
75007;SDS011;63554;48.940;12.050;2023-03-01T06:33:51;2.92;;;2.83;;
75007;SDS011;63554;48.940;12.050;2023-03-01T06:37:54;3.33;;;3.03;;
75007;SDS011;63554;48.940;12.050;2023-03-01T06:41:57;3.63;;;2.88;;
75007;SDS011;63554;48.940;12.050;2023-03-01T06:46:02;2.97;;;2.50;;
75007;SDS011;63554;48.940;12.050;2023-03-01T06:50:09;4.47;;;3.85;;
75007;SDS011;63554;48.940;12.050;2023-03-01T06:54:12;3.45;;;2.47;;
75007;SDS011;63554;48.940;12.050;2023-03-01T06:58:16;3.63;;;3.42;;
75007;SDS011;63554;48.940;12.050;2023-03-01T07:02:18;2.15;;;2.05;;
75007;SDS011;63554;48.940;12.050;2023-03-01T07:06:23;3.20;;;3.00;;
75007;SDS011;63554;48.940;12.050;2023-03-01T07:10:26;2.85;;;2.65;;
75007;SDS011;63554;48.940;12.050;2023-03-01T07:14:28;2.95;;;2.75;;
75007;SDS011;63554;48.940;12.050;2023-03-01T07:18:31;4.00;;;3.70;;
75007;SDS011;63554;48.940;12.050;2023-03-01T07:22:35;1.70;;;1.60;;
75007;SDS011;63554;48.940;12.050;2023-03-01T07:26:37;3.78;;;3.50;;
75007;SDS011;63554;48.940;12.050;2023-03-01T07:30:40;3.53;;;3.33;;
75007;SDS011;63554;48.940;12.050;2023-03-01T07:34:43;3.00;;;2.30;;
75007;SDS011;63554;48.940;12.050;2023-03-01T07:38:47;3.80;;;3.50;;
75007;SDS011;63554;48.940;12.050;2023-03-01T07:42:54;5.18;;;2.58;;
75007;SDS011;63554;48.940;12.050;2023-03-01T07:46:58;4.13;;;3.15;;
75007;SDS011;63554;48.940;12.050;2023-03-01T07:51:01;4.63;;;2.92;;
75007;SDS011;63554;48.940;12.050;2023-03-01T07:55:08;4.18;;;2.40;;
75007;SDS011;63554;48.940;12.050;2023-03-01T07:59:10;4.75;;;3.30;;
75007;SDS011;63554;48.940;12.050;2023-03-01T08:03:13;2.15;;;2.05;;
75007;SDS011;63554;48.940;12.050;2023-03-01T08:07:15;2.78;;;2.53;;
75007;SDS011;63554;48.940;12.050;2023-03-01T08:11:19;2.25;;;1.98;;
75007;SDS011;63554;48.940;12.050;2023-03-01T08:15:21;3.08;;;2.40;;
75007;SDS011;63554;48.940;12.050;2023-03-01T08:19:24;3.00;;;2.42;;
75007;SDS011;63554;48.940;12.050;2023-03-01T08:23:29;3.17;;;2.90;;
75007;SDS011;63554;48.940;12.050;2023-03-01T08:27:33;3.72;;;3.53;;
75007;SDS011;63554;48.940;12.050;2023-03-01T08:31:37;2.15;;;1.95;;
75007;SDS011;63554;48.940;12.050;2023-03-01T08:35:41;2.75;;;2.13;;
75007;SDS011;63554;48.940;12.050;2023-03-01T08:39:44;3.20;;;2.95;;
75007;SDS011;63554;48.940;12.050;2023-03-01T08:43:48;3.45;;;2.72;;
75007;SDS011;63554;48.940;12.050;2023-03-01T08:47:51;4.07;;;3.20;;
75007;SDS011;63554;48.940;12.050;2023-03-01T08:51:54;2.90;;;2.42;;
75007;SDS011;63554;48.940;12.050;2023-03-01T08:55:59;3.97;;;2.70;;
75007;SDS011;63554;48.940;12.050;2023-03-01T09:00:04;3.63;;;3.25;;
75007;SDS011;63554;48.940;12.050;2023-03-01T09:04:10;3.08;;;2.75;;
75007;SDS011;63554;48.940;12.050;2023-03-01T09:08:13;4.50;;;2.45;;
75007;SDS011;63554;48.940;12.050;2023-03-01T09:12:16;3.88;;;3.45;;
75007;SDS011;63554;48.940;12.050;2023-03-01T09:16:20;3.30;;;2.28;;
75007;SDS011;63554;48.940;12.050;2023-03-01T09:20:23;2.75;;;2.25;;
75007;SDS011;63554;48.940;12.050;2023-03-01T09:24:26;1.45;;;1.35;;
75007;SDS011;63554;48.940;12.050;2023-03-01T09:28:28;3.72;;;2.72;;
75007;SDS011;63554;48.940;12.050;2023-03-01T09:32:33;2.40;;;2.03;;
75007;SDS011;63554;48.940;12.050;2023-03-01T09:36:36;6.55;;;3.30;;
75007;SDS011;63554;48.940;12.050;2023-03-01T09:40:41;3.63;;;3.05;;
75007;SDS011;63554;48.940;12.050;2023-03-01T09:44:48;3.15;;;2.85;;
75007;SDS011;63554;48.940;12.050;2023-03-01T09:48:57;3.30;;;2.70;;
75007;SDS011;63554;48.940;12.050;2023-03-01T09:53:06;2.85;;;1.92;;
75007;SDS011;63554;48.940;12.050;2023-03-01T09:57:16;2.80;;;1.85;;
75007;SDS011;63554;48.940;12.050;2023-03-01T10:01:27;3.88;;;2.65;;
75007;SDS011;63554;48.940;12.050;2023-03-01T10:05:39;5.47;;;2.55;;
75007;SDS011;63554;48.940;12.050;2023-03-01T10:09:49;3.88;;;2.85;;
75007;SDS011;63554;48.940;12.050;2023-03-01T10:13:54;3.60;;;2.60;;
75007;SDS011;63554;48.940;12.050;2023-03-01T10:18:01;4.80;;;2.78;;
75007;SDS011;63554;48.940;12.050;2023-03-01T10:22:16;5.90;;;3.40;;
75007;SDS011;63554;48.940;12.050;2023-03-01T10:26:31;4.90;;;2.88;;
75007;SDS011;63554;48.940;12.050;2023-03-01T10:30:46;7.07;;;3.47;;
75007;SDS011;63554;48.940;12.050;2023-03-01T10:34:49;8.02;;;3.15;;
75007;SDS011;63554;48.940;12.050;2023-03-01T10:38:54;5.10;;;2.53;;
75007;SDS011;63554;48.940;12.050;2023-03-01T10:42:59;7.60;;;3.92;;
75007;SDS011;63554;48.940;12.050;2023-03-01T10:47:04;4.35;;;2.90;;
75007;SDS011;63554;48.940;12.050;2023-03-01T10:51:15;8.95;;;5.00;;
75007;SDS011;63554;48.940;12.050;2023-03-01T10:55:24;6.00;;;3.45;;
75007;SDS011;63554;48.940;12.050;2023-03-01T10:59:32;4.07;;;3.00;;
75007;SDS011;63554;48.940;12.050;2023-03-01T11:03:36;3.78;;;2.90;;
75007;SDS011;63554;48.940;12.050;2023-03-01T11:07:46;5.85;;;3.53;;
75007;SDS011;63554;48.940;12.050;2023-03-01T11:11:53;8.85;;;4.57;;
75007;SDS011;63554;48.940;12.050;2023-03-01T11:15:58;5.47;;;3.92;;
75007;SDS011;63554;48.940;12.050;2023-03-01T11:20:05;6.30;;;3.88;;
75007;SDS011;63554;48.940;12.050;2023-03-01T11:24:19;7.38;;;4.03;;
75007;SDS011;63554;48.940;12.050;2023-03-01T11:28:30;6.13;;;3.38;;
75007;SDS011;63554;48.940;12.050;2023-03-01T11:32:34;6.60;;;5.03;;
75007;SDS011;63554;48.940;12.050;2023-03-01T11:36:43;7.05;;;3.53;;
75007;SDS011;63554;48.940;12.050;2023-03-01T11:40:52;7.30;;;4.20;;
75007;SDS011;63554;48.940;12.050;2023-03-01T11:45:02;7.95;;;4.28;;
75007;SDS011;63554;48.940;12.050;2023-03-01T11:49:15;8.30;;;4.55;;
75007;SDS011;63554;48.940;12.050;2023-03-01T11:57:57;13.48;;;4.45;;
75007;SDS011;63554;48.940;12.050;2023-03-01T12:02:22;6.25;;;4.28;;
75007;SDS011;63554;48.940;12.050;2023-03-01T12:10:51;5.78;;;3.47;;
75007;SDS011;63554;48.940;12.050;2023-03-01T12:15:05;11.23;;;4.90;;
75007;SDS011;63554;48.940;12.050;2023-03-01T12:19:27;5.93;;;3.55;;
75007;SDS011;63554;48.940;12.050;2023-03-01T12:23:47;8.75;;;4.38;;
75007;SDS011;63554;48.940;12.050;2023-03-01T12:28:10;10.02;;;4.85;;
75007;SDS011;63554;48.940;12.050;2023-03-01T12:37:07;7.38;;;5.05;;
75007;SDS011;63554;48.940;12.050;2023-03-01T12:41:32;7.40;;;4.53;;
75007;SDS011;63554;48.940;12.050;2023-03-01T12:45:48;8.75;;;3.65;;
75007;SDS011;63554;48.940;12.050;2023-03-01T12:50:03;7.28;;;4.50;;
75007;SDS011;63554;48.940;12.050;2023-03-01T12:54:16;10.77;;;5.75;;
75007;SDS011;63554;48.940;12.050;2023-03-01T12:58:27;8.93;;;5.10;;
75007;SDS011;63554;48.940;12.050;2023-03-01T13:02:49;9.63;;;4.88;;
75007;SDS011;63554;48.940;12.050;2023-03-01T13:07:18;10.07;;;4.78;;
75007;SDS011;63554;48.940;12.050;2023-03-01T13:11:29;7.90;;;4.65;;
75007;SDS011;63554;48.940;12.050;2023-03-01T13:15:33;8.95;;;5.72;;
75007;SDS011;63554;48.940;12.050;2023-03-01T13:19:37;9.77;;;4.57;;
75007;SDS011;63554;48.940;12.050;2023-03-01T13:23:44;6.85;;;3.63;;
75007;SDS011;63554;48.940;12.050;2023-03-01T13:27:51;11.48;;;5.03;;
75007;SDS011;63554;48.940;12.050;2023-03-01T13:32:32;9.30;;;3.88;;
75007;SDS011;63554;48.940;12.050;2023-03-01T13:36:45;9.40;;;4.43;;
75007;SDS011;63554;48.940;12.050;2023-03-01T13:40:58;9.18;;;4.55;;
75007;SDS011;63554;48.940;12.050;2023-03-01T13:45:04;8.20;;;4.22;;
75007;SDS011;63554;48.940;12.050;2023-03-01T13:49:16;10.82;;;4.43;;
75007;SDS011;63554;48.940;12.050;2023-03-01T13:53:22;6.53;;;3.92;;
75007;SDS011;63554;48.940;12.050;2023-03-01T13:57:29;7.85;;;4.07;;
75007;SDS011;63554;48.940;12.050;2023-03-01T14:01:37;10.35;;;4.53;;
75007;SDS011;63554;48.940;12.050;2023-03-01T14:05:50;6.97;;;3.58;;
75007;SDS011;63554;48.940;12.050;2023-03-01T14:10:14;7.47;;;4.47;;
75007;SDS011;63554;48.940;12.050;2023-03-01T14:14:20;6.22;;;4.50;;
75007;SDS011;63554;48.940;12.050;2023-03-01T14:18:35;8.50;;;4.88;;
75007;SDS011;63554;48.940;12.050;2023-03-01T14:22:46;9.45;;;4.63;;
75007;SDS011;63554;48.940;12.050;2023-03-01T14:26:50;8.95;;;4.15;;
75007;SDS011;63554;48.940;12.050;2023-03-01T14:30:54;7.50;;;4.22;;
75007;SDS011;63554;48.940;12.050;2023-03-01T14:34:59;8.40;;;4.75;;
75007;SDS011;63554;48.940;12.050;2023-03-01T14:39:15;9.80;;;3.97;;
75007;SDS011;63554;48.940;12.050;2023-03-01T14:43:20;11.75;;;4.28;;
75007;SDS011;63554;48.940;12.050;2023-03-01T14:47:27;5.47;;;3.95;;
75007;SDS011;63554;48.940;12.050;2023-03-01T14:51:36;7.45;;;4.60;;
75007;SDS011;63554;48.940;12.050;2023-03-01T14:55:40;10.75;;;3.85;;
75007;SDS011;63554;48.940;12.050;2023-03-01T14:59:46;6.03;;;3.63;;
75007;SDS011;63554;48.940;12.050;2023-03-01T15:03:49;10.65;;;4.25;;
75007;SDS011;63554;48.940;12.050;2023-03-01T15:07:54;8.20;;;4.63;;
75007;SDS011;63554;48.940;12.050;2023-03-01T15:11:59;8.60;;;4.20;;
75007;SDS011;63554;48.940;12.050;2023-03-01T15:16:09;7.10;;;4.28;;
75007;SDS011;63554;48.940;12.050;2023-03-01T15:20:15;7.10;;;3.83;;
75007;SDS011;63554;48.940;12.050;2023-03-01T15:24:24;6.07;;;3.90;;
75007;SDS011;63554;48.940;12.050;2023-03-01T15:28:31;7.47;;;3.08;;
75007;SDS011;63554;48.940;12.050;2023-03-01T15:32:36;6.80;;;4.03;;
75007;SDS011;63554;48.940;12.050;2023-03-01T15:36:41;9.90;;;5.03;;
75007;SDS011;63554;48.940;12.050;2023-03-01T15:40:50;7.95;;;4.72;;
75007;SDS011;63554;48.940;12.050;2023-03-01T15:45:06;8.38;;;3.53;;
75007;SDS011;63554;48.940;12.050;2023-03-01T15:49:19;7.68;;;4.90;;
75007;SDS011;63554;48.940;12.050;2023-03-01T15:53:29;8.93;;;4.63;;
75007;SDS011;63554;48.940;12.050;2023-03-01T15:57:33;5.40;;;3.70;;
75007;SDS011;63554;48.940;12.050;2023-03-01T16:01:36;11.10;;;5.15;;
75007;SDS011;63554;48.940;12.050;2023-03-01T16:05:39;10.05;;;5.28;;
75007;SDS011;63554;48.940;12.050;2023-03-01T16:09:41;8.57;;;4.30;;
75007;SDS011;63554;48.940;12.050;2023-03-01T16:13:46;7.75;;;4.55;;
75007;SDS011;63554;48.940;12.050;2023-03-01T16:17:50;7.13;;;4.28;;
75007;SDS011;63554;48.940;12.050;2023-03-01T16:21:53;6.20;;;3.22;;
75007;SDS011;63554;48.940;12.050;2023-03-01T16:25:58;8.65;;;4.55;;
75007;SDS011;63554;48.940;12.050;2023-03-01T16:30:02;11.40;;;4.60;;
75007;SDS011;63554;48.940;12.050;2023-03-01T16:34:05;11.45;;;4.85;;
75007;SDS011;63554;48.940;12.050;2023-03-01T16:38:08;6.80;;;4.32;;
75007;SDS011;63554;48.940;12.050;2023-03-01T16:42:11;9.25;;;4.50;;
75007;SDS011;63554;48.940;12.050;2023-03-01T16:46:16;6.03;;;3.53;;
75007;SDS011;63554;48.940;12.050;2023-03-01T16:50:20;7.72;;;3.83;;
75007;SDS011;63554;48.940;12.050;2023-03-01T16:54:22;10.95;;;4.35;;
75007;SDS011;63554;48.940;12.050;2023-03-01T16:58:25;4.13;;;3.60;;
75007;SDS011;63554;48.940;12.050;2023-03-01T17:02:29;10.98;;;4.82;;
75007;SDS011;63554;48.940;12.050;2023-03-01T17:06:32;6.10;;;3.92;;
75007;SDS011;63554;48.940;12.050;2023-03-01T17:10:35;6.78;;;4.72;;
75007;SDS011;63554;48.940;12.050;2023-03-01T17:14:37;3.40;;;2.47;;
75007;SDS011;63554;48.940;12.050;2023-03-01T17:18:43;5.63;;;3.65;;
75007;SDS011;63554;48.940;12.050;2023-03-01T17:22:46;6.70;;;3.28;;
75007;SDS011;63554;48.940;12.050;2023-03-01T17:26:49;7.15;;;4.35;;
75007;SDS011;63554;48.940;12.050;2023-03-01T17:30:51;6.85;;;3.90;;
75007;SDS011;63554;48.940;12.050;2023-03-01T17:34:57;9.05;;;6.05;;
75007;SDS011;63554;48.940;12.050;2023-03-01T17:38:59;9.07;;;4.65;;
75007;SDS011;63554;48.940;12.050;2023-03-01T17:43:02;6.93;;;4.65;;
75007;SDS011;63554;48.940;12.050;2023-03-01T17:47:05;4.35;;;3.20;;
75007;SDS011;63554;48.940;12.050;2023-03-01T17:51:09;4.28;;;3.33;;
75007;SDS011;63554;48.940;12.050;2023-03-01T17:55:13;5.78;;;2.90;;
75007;SDS011;63554;48.940;12.050;2023-03-01T17:59:15;5.50;;;4.43;;
75007;SDS011;63554;48.940;12.050;2023-03-01T18:03:19;3.92;;;2.72;;
75007;SDS011;63554;48.940;12.050;2023-03-01T18:07:24;4.40;;;3.70;;
75007;SDS011;63554;48.940;12.050;2023-03-01T18:11:27;9.40;;;3.55;;
75007;SDS011;63554;48.940;12.050;2023-03-01T18:15:30;3.53;;;2.60;;
75007;SDS011;63554;48.940;12.050;2023-03-01T18:19:33;5.35;;;3.35;;
75007;SDS011;63554;48.940;12.050;2023-03-01T18:23:37;4.32;;;3.53;;
75007;SDS011;63554;48.940;12.050;2023-03-01T18:27:40;4.22;;;3.25;;
75007;SDS011;63554;48.940;12.050;2023-03-01T18:31:42;4.68;;;2.85;;
75007;SDS011;63554;48.940;12.050;2023-03-01T18:35:46;4.25;;;3.05;;
75007;SDS011;63554;48.940;12.050;2023-03-01T18:39:51;4.90;;;3.28;;
75007;SDS011;63554;48.940;12.050;2023-03-01T18:43:54;8.57;;;4.18;;
75007;SDS011;63554;48.940;12.050;2023-03-01T18:48:01;6.25;;;3.67;;
75007;SDS011;63554;48.940;12.050;2023-03-01T18:52:04;10.18;;;5.00;;
75007;SDS011;63554;48.940;12.050;2023-03-01T18:56:09;6.78;;;4.18;;
75007;SDS011;63554;48.940;12.050;2023-03-01T19:00:13;3.75;;;2.90;;
75007;SDS011;63554;48.940;12.050;2023-03-01T19:04:16;6.25;;;4.30;;
75007;SDS011;63554;48.940;12.050;2023-03-01T19:08:19;4.25;;;3.83;;
75007;SDS011;63554;48.940;12.050;2023-03-01T19:12:23;3.45;;;2.63;;
75007;SDS011;63554;48.940;12.050;2023-03-01T19:16:29;5.43;;;4.18;;
75007;SDS011;63554;48.940;12.050;2023-03-01T19:20:33;2.85;;;2.60;;
75007;SDS011;63554;48.940;12.050;2023-03-01T19:24:36;6.20;;;3.95;;
75007;SDS011;63554;48.940;12.050;2023-03-01T19:28:40;5.75;;;3.78;;
75007;SDS011;63554;48.940;12.050;2023-03-01T19:32:43;5.30;;;2.88;;
75007;SDS011;63554;48.940;12.050;2023-03-01T19:36:46;4.68;;;2.25;;
75007;SDS011;63554;48.940;12.050;2023-03-01T19:40:49;3.83;;;2.88;;
75007;SDS011;63554;48.940;12.050;2023-03-01T19:44:54;2.67;;;2.42;;
75007;SDS011;63554;48.940;12.050;2023-03-01T19:48:56;3.40;;;3.10;;
75007;SDS011;63554;48.940;12.050;2023-03-01T19:53:00;4.47;;;3.10;;
75007;SDS011;63554;48.940;12.050;2023-03-01T19:57:03;6.28;;;3.10;;
75007;SDS011;63554;48.940;12.050;2023-03-01T20:01:13;2.63;;;1.70;;
75007;SDS011;63554;48.940;12.050;2023-03-01T20:05:18;3.25;;;2.38;;
75007;SDS011;63554;48.940;12.050;2023-03-01T20:09:20;3.25;;;2.55;;
75007;SDS011;63554;48.940;12.050;2023-03-01T20:13:23;2.95;;;2.35;;
75007;SDS011;63554;48.940;12.050;2023-03-01T20:17:27;1.98;;;1.60;;
75007;SDS011;63554;48.940;12.050;2023-03-01T20:21:30;3.42;;;2.40;;
75007;SDS011;63554;48.940;12.050;2023-03-01T20:25:34;4.30;;;2.22;;
75007;SDS011;63554;48.940;12.050;2023-03-01T20:29:37;4.93;;;3.15;;
75007;SDS011;63554;48.940;12.050;2023-03-01T20:33:41;1.75;;;1.38;;
75007;SDS011;63554;48.940;12.050;2023-03-01T20:37:44;4.00;;;1.90;;
75007;SDS011;63554;48.940;12.050;2023-03-01T20:41:47;2.22;;;2.00;;
75007;SDS011;63554;48.940;12.050;2023-03-01T20:45:49;3.95;;;2.55;;
75007;SDS011;63554;48.940;12.050;2023-03-01T20:49:53;4.50;;;2.17;;
75007;SDS011;63554;48.940;12.050;2023-03-01T20:53:59;7.90;;;2.35;;
75007;SDS011;63554;48.940;12.050;2023-03-01T20:58:01;2.72;;;2.38;;
75007;SDS011;63554;48.940;12.050;2023-03-01T21:02:04;4.20;;;2.97;;
75007;SDS011;63554;48.940;12.050;2023-03-01T21:06:09;3.58;;;2.55;;
75007;SDS011;63554;48.940;12.050;2023-03-01T21:10:12;3.10;;;2.80;;
75007;SDS011;63554;48.940;12.050;2023-03-01T21:14:15;2.28;;;2.17;;
75007;SDS011;63554;48.940;12.050;2023-03-01T21:18:17;2.88;;;2.67;;
75007;SDS011;63554;48.940;12.050;2023-03-01T21:22:21;4.15;;;2.60;;
75007;SDS011;63554;48.940;12.050;2023-03-01T21:26:25;5.07;;;2.22;;
75007;SDS011;63554;48.940;12.050;2023-03-01T21:30:28;2.45;;;2.25;;
75007;SDS011;63554;48.940;12.050;2023-03-01T21:34:31;3.13;;;2.67;;
75007;SDS011;63554;48.940;12.050;2023-03-01T21:38:36;7.15;;;3.60;;
75007;SDS011;63554;48.940;12.050;2023-03-01T21:42:41;2.92;;;2.42;;
75007;SDS011;63554;48.940;12.050;2023-03-01T21:46:44;3.97;;;2.75;;
75007;SDS011;63554;48.940;12.050;2023-03-01T21:50:53;2.88;;;2.47;;
75007;SDS011;63554;48.940;12.050;2023-03-01T21:54:57;3.78;;;3.30;;
75007;SDS011;63554;48.940;12.050;2023-03-01T21:59:02;5.55;;;3.35;;
75007;SDS011;63554;48.940;12.050;2023-03-01T22:03:05;2.17;;;2.08;;
75007;SDS011;63554;48.940;12.050;2023-03-01T22:07:08;6.05;;;3.10;;
75007;SDS011;63554;48.940;12.050;2023-03-01T22:11:12;7.13;;;2.80;;
75007;SDS011;63554;48.940;12.050;2023-03-01T22:15:15;2.67;;;1.60;;
75007;SDS011;63554;48.940;12.050;2023-03-01T22:19:19;2.38;;;2.17;;
75007;SDS011;63554;48.940;12.050;2023-03-01T22:23:22;4.13;;;2.88;;
75007;SDS011;63554;48.940;12.050;2023-03-01T22:27:26;3.40;;;3.17;;
75007;SDS011;63554;48.940;12.050;2023-03-01T22:31:31;3.63;;;2.55;;
75007;SDS011;63554;48.940;12.050;2023-03-01T22:35:34;2.67;;;2.50;;
75007;SDS011;63554;48.940;12.050;2023-03-01T22:39:36;2.60;;;2.38;;
75007;SDS011;63554;48.940;12.050;2023-03-01T22:43:40;3.08;;;1.63;;
75007;SDS011;63554;48.940;12.050;2023-03-01T22:47:43;6.03;;;2.13;;
75007;SDS011;63554;48.940;12.050;2023-03-01T22:51:46;4.18;;;3.63;;
75007;SDS011;63554;48.940;12.050;2023-03-01T22:55:49;3.20;;;2.67;;
75007;SDS011;63554;48.940;12.050;2023-03-01T22:59:53;3.28;;;3.08;;
75007;SDS011;63554;48.940;12.050;2023-03-01T23:03:56;1.85;;;1.63;;
75007;SDS011;63554;48.940;12.050;2023-03-01T23:07:59;1.88;;;1.73;;
75007;SDS011;63554;48.940;12.050;2023-03-01T23:12:02;1.70;;;1.60;;
75007;SDS011;63554;48.940;12.050;2023-03-01T23:16:09;4.40;;;1.95;;
75007;SDS011;63554;48.940;12.050;2023-03-01T23:20:12;2.20;;;2.08;;
75007;SDS011;63554;48.940;12.050;2023-03-01T23:24:16;2.03;;;1.88;;
75007;SDS011;63554;48.940;12.050;2023-03-01T23:28:19;1.90;;;1.45;;
75007;SDS011;63554;48.940;12.050;2023-03-01T23:32:24;5.53;;;2.92;;
75007;SDS011;63554;48.940;12.050;2023-03-01T23:36:27;2.50;;;2.10;;
75007;SDS011;63554;48.940;12.050;2023-03-01T23:40:32;2.28;;;2.15;;
75007;SDS011;63554;48.940;12.050;2023-03-01T23:44:34;4.72;;;3.47;;
75007;SDS011;63554;48.940;12.050;2023-03-01T23:48:40;7.82;;;2.90;;
75007;SDS011;63554;48.940;12.050;2023-03-01T23:52:43;1.65;;;1.55;;
75007;SDS011;63554;48.940;12.050;2023-03-01T23:56:46;2.25;;;2.15;;
